createdAt,value
2023-06-27T00:02:09.620Z,17.77
2023-06-27T00:03:09.489Z,17.74
2023-06-27T00:04:09.553Z,17.70
2023-06-27T00:05:09.300Z,17.73
2023-06-27T00:06:09.220Z,17.71
2023-06-27T00:07:09.246Z,17.73
2023-06-27T00:08:09.084Z,17.73
2023-06-27T00:09:08.995Z,17.81
2023-06-27T00:10:08.948Z,17.77
2023-06-27T00:11:08.847Z,17.73
2023-06-27T00:12:08.792Z,17.73
2023-06-27T00:13:08.720Z,17.73
2023-06-27T00:14:08.649Z,17.67
2023-06-27T00:15:08.552Z,17.66
2023-06-27T00:16:08.459Z,17.69
2023-06-27T00:17:08.387Z,17.73
2023-06-27T00:18:08.454Z,17.71
2023-06-27T00:19:08.435Z,17.69
2023-06-27T00:20:08.159Z,17.69
2023-06-27T00:21:08.099Z,17.69
2023-06-27T00:22:08.007Z,17.76
2023-06-27T00:23:08.383Z,17.69
2023-06-27T00:24:07.886Z,17.58
2023-06-27T00:26:07.742Z,17.63
2023-06-27T00:27:07.709Z,17.71
2023-06-27T00:28:07.551Z,17.66
2023-06-27T00:29:07.525Z,17.73
2023-06-27T00:30:07.397Z,17.70
2023-06-27T00:31:07.385Z,17.57
2023-06-27T00:32:07.256Z,17.63
2023-06-27T00:33:07.177Z,17.60
2023-06-27T00:34:07.137Z,17.60
2023-06-27T00:35:07.027Z,17.66
2023-06-27T00:36:06.991Z,17.57
2023-06-27T00:37:06.905Z,17.58
2023-06-27T00:38:06.828Z,17.53
2023-06-27T00:39:09.335Z,17.48
2023-06-27T00:40:06.638Z,17.55
2023-06-27T00:41:06.591Z,17.57
2023-06-27T00:42:06.689Z,17.58
2023-06-27T00:43:06.409Z,17.54
2023-06-27T00:44:06.328Z,17.54
2023-06-27T00:45:06.720Z,17.64
2023-06-27T00:46:06.177Z,17.54
2023-06-27T00:47:06.102Z,17.58
2023-06-27T00:48:06.074Z,17.57
2023-06-27T00:49:05.984Z,17.57
2023-06-27T00:50:05.871Z,17.44
2023-06-27T00:51:05.803Z,17.40
2023-06-27T00:52:05.734Z,17.46
2023-06-27T00:53:05.675Z,17.43
2023-06-27T00:54:05.579Z,17.44
2023-06-27T00:55:05.744Z,17.40
2023-06-27T00:56:05.414Z,17.29
2023-06-27T00:57:05.705Z,17.28
2023-06-27T00:58:05.315Z,17.26
2023-06-27T00:59:05.186Z,17.20
2023-06-27T01:00:05.148Z,17.18
2023-06-27T01:01:05.071Z,17.20
2023-06-27T01:02:04.972Z,17.13
2023-06-27T01:03:05.017Z,17.26
2023-06-27T01:04:04.874Z,17.15
2023-06-27T01:05:04.767Z,17.13
2023-06-27T01:06:04.656Z,17.21
2023-06-27T01:08:04.558Z,17.17
2023-06-27T01:09:04.426Z,17.07
2023-06-27T01:10:04.549Z,17.05
2023-06-27T01:11:04.279Z,16.95
2023-06-27T01:12:04.211Z,16.96
2023-06-27T01:13:04.168Z,16.90
2023-06-27T01:14:04.048Z,16.88
2023-06-27T01:15:03.968Z,16.82
2023-06-27T01:16:03.897Z,16.82
2023-06-27T01:17:03.834Z,16.67
2023-06-27T01:18:04.256Z,16.63
2023-06-27T01:19:03.669Z,16.66
2023-06-27T01:20:03.622Z,16.45
2023-06-27T01:21:03.852Z,16.30
2023-06-27T01:22:03.433Z,16.34
2023-06-27T01:23:04.013Z,16.27
2023-06-27T01:45:23.679Z,15.61
2023-06-27T01:46:23.871Z,15.48
2023-06-27T01:47:23.500Z,15.38
2023-06-27T01:48:23.420Z,15.48
2023-06-27T01:49:23.385Z,15.43
2023-06-27T01:50:23.509Z,15.38
2023-06-27T01:51:23.389Z,15.39
2023-06-27T01:53:23.281Z,15.31
2023-06-27T02:00:22.730Z,15.27
2023-06-27T02:07:22.052Z,15.10
2023-06-27T02:08:21.878Z,15.09
2023-06-27T02:10:21.767Z,14.90
2023-06-27T02:11:21.672Z,15.02
2023-06-27T02:12:21.792Z,14.95
2023-06-27T02:13:21.517Z,15.10
2023-06-27T02:14:21.840Z,15.02
2023-06-27T02:16:21.290Z,14.93
2023-06-27T02:24:20.643Z,14.88
2023-06-27T02:25:23.776Z,14.83
2023-06-27T02:26:20.477Z,14.79
2023-06-27T02:27:20.391Z,14.83
2023-06-27T02:28:20.307Z,14.83
2023-06-27T02:29:20.227Z,14.69
2023-06-27T02:30:20.157Z,14.75
2023-06-27T02:31:20.195Z,14.79
2023-06-27T02:32:19.993Z,14.75
2023-06-27T02:34:07.419Z,14.71
2023-06-27T02:35:07.338Z,14.75
2023-06-27T02:36:07.243Z,14.74
2023-06-27T02:37:07.169Z,14.67
2023-06-27T02:38:07.088Z,14.71
2023-06-27T02:39:07.015Z,14.64
2023-06-27T02:40:06.955Z,14.60
2023-06-27T02:41:07.057Z,14.61
2023-06-27T02:42:06.788Z,14.72
2023-06-27T02:43:06.702Z,14.68
2023-06-27T02:44:06.622Z,14.60
2023-06-27T02:45:06.551Z,14.61
2023-06-27T02:46:06.561Z,14.57
2023-06-27T02:47:06.589Z,14.61
2023-06-27T02:48:06.319Z,14.46
2023-06-27T02:49:06.226Z,14.49
2023-06-27T02:50:06.147Z,14.49
2023-06-27T02:51:08.693Z,14.39
2023-06-27T02:52:05.989Z,14.35
2023-06-27T02:53:05.932Z,14.39
2023-06-27T02:54:05.832Z,14.39
2023-06-27T02:55:05.755Z,14.36
2023-06-27T02:56:05.704Z,14.38
2023-06-27T02:57:05.999Z,14.34
2023-06-27T02:58:05.524Z,14.39
2023-06-27T02:59:05.644Z,14.35
2023-06-27T03:00:05.357Z,14.41
2023-06-27T03:01:05.282Z,14.36
2023-06-27T03:02:05.249Z,14.36
2023-06-27T03:03:05.244Z,14.34
2023-06-27T03:04:18.520Z,14.31
2023-06-27T03:05:05.178Z,14.35
2023-06-27T03:06:04.984Z,14.32
2023-06-27T03:07:04.860Z,14.24
2023-06-27T03:08:04.742Z,14.31
2023-06-27T03:09:04.660Z,14.31
2023-06-27T03:10:04.576Z,14.29
2023-06-27T03:11:04.506Z,14.34
2023-06-27T03:12:04.437Z,14.36
2023-06-27T03:13:04.340Z,14.34
2023-06-27T03:14:04.269Z,14.27
2023-06-27T03:15:04.185Z,14.24
2023-06-27T03:16:04.102Z,14.29
2023-06-27T03:17:04.127Z,14.28
2023-06-27T03:18:03.989Z,14.23
2023-06-27T03:19:03.873Z,14.20
2023-06-27T03:20:03.836Z,14.28
2023-06-27T03:21:03.758Z,14.20
2023-06-27T03:22:03.635Z,14.27
2023-06-27T03:23:03.556Z,14.32
2023-06-27T03:24:03.475Z,14.28
2023-06-27T03:25:03.407Z,14.31
2023-06-27T03:26:03.318Z,14.36
2023-06-27T03:27:03.240Z,14.35
2023-06-27T03:28:45.657Z,14.32
2023-06-27T03:29:45.568Z,14.24
2023-06-27T03:30:45.486Z,14.28
2023-06-27T03:31:45.466Z,14.29
2023-06-27T03:32:45.363Z,14.27
2023-06-27T03:33:45.251Z,14.27
2023-06-27T03:34:45.172Z,14.28
2023-06-27T03:35:45.096Z,14.32
2023-06-27T03:36:45.018Z,14.29
2023-06-27T03:37:44.940Z,14.34
2023-06-27T03:38:45.104Z,14.34
2023-06-27T03:39:44.780Z,14.24
2023-06-27T03:40:44.703Z,14.31
2023-06-27T03:41:44.623Z,14.29
2023-06-27T03:42:44.544Z,14.31
2023-06-27T03:43:44.520Z,14.24
2023-06-27T03:44:44.409Z,14.29
2023-06-27T03:45:44.309Z,14.28
2023-06-27T03:46:44.227Z,14.31
2023-06-27T03:47:44.294Z,14.31
2023-06-27T03:48:44.092Z,14.34
2023-06-27T03:49:43.993Z,14.31
2023-06-27T03:50:44.547Z,14.35
2023-06-27T03:51:43.834Z,14.36
2023-06-27T03:52:44.136Z,14.38
2023-06-27T03:53:44.182Z,14.38
2023-06-27T03:54:46.477Z,14.38
2023-06-27T03:55:43.780Z,14.31
2023-06-27T03:56:43.447Z,14.31
2023-06-27T03:57:43.366Z,14.38
2023-06-27T03:58:43.284Z,14.41
2023-06-27T03:59:43.206Z,14.38
2023-06-27T04:00:43.148Z,14.35
2023-06-27T04:01:43.088Z,14.35
2023-06-27T04:02:42.991Z,14.38
2023-06-27T04:03:42.993Z,14.41
2023-06-27T04:04:42.922Z,14.44
2023-06-27T04:05:43.089Z,14.60
2023-06-27T04:06:42.874Z,14.57
2023-06-27T04:07:42.582Z,14.60
2023-06-27T04:08:42.551Z,14.64
2023-06-27T04:09:42.424Z,14.56
2023-06-27T04:10:42.345Z,14.72
2023-06-27T04:11:42.264Z,14.78
2023-06-27T04:12:42.183Z,14.74
2023-06-27T04:13:42.124Z,14.78
2023-06-27T04:14:42.279Z,14.83
2023-06-27T04:15:42.552Z,14.84
2023-06-27T04:16:41.994Z,14.85
2023-06-27T04:17:42.024Z,14.85
2023-06-27T04:18:41.719Z,14.88
2023-06-27T04:19:41.644Z,15.02
2023-06-27T04:20:41.568Z,14.93
2023-06-27T04:21:41.483Z,15.02
2023-06-27T04:22:41.414Z,14.94
2023-06-27T04:23:41.340Z,15.02
2023-06-27T04:24:41.253Z,15.06
2023-06-27T04:25:41.427Z,15.16
2023-06-27T04:26:41.091Z,15.20
2023-06-27T04:27:41.013Z,15.27
2023-06-27T04:28:40.938Z,15.26
2023-06-27T04:29:40.860Z,15.30
2023-06-27T04:30:40.786Z,15.38
2023-06-27T04:31:40.777Z,15.34
2023-06-27T04:32:40.682Z,15.39
2023-06-27T04:33:43.761Z,15.43
2023-06-27T04:36:40.662Z,15.66
2023-06-27T04:37:40.245Z,15.61
2023-06-27T04:38:40.159Z,15.76
2023-06-27T04:39:40.119Z,15.67
2023-06-27T04:40:40.448Z,15.68
2023-06-27T04:43:40.926Z,15.82
2023-06-27T04:46:39.774Z,15.89
2023-06-27T04:51:39.522Z,15.99
2023-06-27T04:55:39.915Z,16.00
2023-06-27T05:00:38.488Z,16.14
2023-06-27T05:01:38.378Z,16.07
2023-06-27T05:02:48.810Z,16.08
2023-06-27T05:03:39.512Z,16.20
2023-06-27T05:04:38.161Z,16.20
2023-06-27T05:05:38.261Z,16.29
2023-06-27T05:06:37.988Z,16.35
2023-06-27T05:07:37.935Z,16.27
2023-06-27T05:08:37.834Z,16.33
2023-06-27T05:09:37.760Z,16.42
2023-06-27T05:10:37.690Z,16.42
2023-06-27T05:11:37.693Z,16.50
2023-06-27T05:12:37.578Z,16.57
2023-06-27T05:13:38.299Z,16.56
2023-06-27T05:14:37.617Z,16.60
2023-06-27T05:15:37.536Z,16.65
2023-06-27T05:16:38.164Z,16.71
2023-06-27T05:17:37.510Z,16.74
2023-06-27T05:18:37.068Z,16.90
2023-06-27T05:19:37.195Z,16.89
2023-06-27T05:20:36.961Z,16.84
2023-06-27T05:22:36.761Z,17.07
2023-06-27T05:23:36.705Z,17.13
2023-06-27T05:24:36.606Z,17.07
2023-06-27T05:25:36.532Z,17.13
2023-06-27T05:26:36.463Z,17.18
2023-06-27T05:27:36.375Z,17.14
2023-06-27T05:28:36.302Z,17.15
2023-06-27T05:29:36.533Z,17.32
2023-06-27T05:30:36.207Z,17.33
2023-06-27T05:31:36.070Z,17.35
2023-06-27T05:32:36.466Z,17.46
2023-06-27T05:33:36.370Z,17.44
2023-06-27T05:34:36.046Z,17.43
2023-06-27T05:35:35.769Z,17.43
2023-06-27T05:36:35.691Z,17.32
2023-06-27T05:37:35.627Z,17.43
2023-06-27T05:38:35.540Z,17.40
2023-06-27T05:39:35.492Z,17.43
2023-06-27T05:40:35.396Z,17.43
2023-06-27T05:41:35.312Z,17.47
2023-06-27T05:42:35.246Z,17.53
2023-06-27T05:43:35.164Z,17.51
2023-06-27T05:44:35.238Z,17.55
2023-06-27T05:45:35.024Z,17.55
2023-06-27T05:46:34.934Z,17.57
2023-06-27T05:47:34.921Z,17.58
2023-06-27T05:48:34.783Z,17.64
2023-06-27T05:49:34.711Z,17.67
2023-06-27T05:50:34.808Z,17.71
2023-06-27T05:51:34.557Z,17.81
2023-06-27T05:52:34.488Z,17.89
2023-06-27T05:53:34.402Z,17.88
2023-06-27T05:54:34.568Z,17.96
2023-06-27T05:56:34.412Z,17.96
2023-06-27T05:57:34.141Z,18.02
2023-06-27T05:58:34.058Z,17.94
2023-06-27T06:00:33.926Z,18.21
2023-06-27T06:01:34.330Z,18.24
2023-06-27T06:03:34.988Z,18.42
2023-06-27T06:06:33.426Z,18.58
2023-06-27T06:07:33.455Z,18.69
2023-06-27T06:08:33.460Z,18.80
2023-06-27T06:15:32.897Z,19.11
2023-06-27T06:25:52.812Z,19.50
2023-06-27T06:26:52.689Z,19.50
2023-06-27T06:27:52.606Z,19.43
2023-06-27T06:34:52.427Z,19.42
2023-06-27T06:35:52.140Z,19.50
2023-06-27T06:36:51.961Z,19.57
2023-06-27T06:37:51.914Z,19.55
2023-06-27T06:38:51.784Z,19.65
2023-06-27T06:39:51.856Z,19.65
2023-06-27T06:40:51.634Z,19.71
2023-06-27T06:41:51.563Z,19.69
2023-06-27T06:42:51.487Z,19.68
2023-06-27T06:43:51.432Z,19.71
2023-06-27T06:44:51.343Z,19.72
2023-06-27T06:45:51.301Z,19.61
2023-06-27T06:46:51.192Z,19.68
2023-06-27T06:47:51.188Z,19.68
2023-06-27T06:55:50.612Z,20.01
2023-06-27T06:56:50.458Z,19.98
2023-06-27T06:57:50.367Z,19.88
2023-06-27T06:58:50.320Z,19.72
2023-06-27T06:59:50.224Z,19.71
2023-06-27T07:00:50.271Z,19.68
2023-06-27T07:01:50.124Z,19.69
2023-06-27T07:02:50.058Z,19.63
2023-06-27T07:03:49.928Z,19.60
2023-06-27T07:04:49.950Z,19.76
2023-06-27T07:05:49.780Z,19.76
2023-06-27T07:06:49.877Z,19.88
2023-06-27T07:07:49.629Z,19.86
2023-06-27T07:08:49.573Z,19.95
2023-06-27T07:09:49.483Z,19.94
2023-06-27T07:10:49.411Z,20.00
2023-06-27T07:11:49.368Z,20.10
2023-06-27T07:12:49.260Z,20.12
2023-06-27T07:13:49.188Z,20.23
2023-06-27T07:14:49.111Z,20.28
2023-06-27T07:15:49.039Z,20.12
2023-06-27T07:16:48.967Z,20.00
2023-06-27T07:17:49.017Z,19.98
2023-06-27T07:18:48.820Z,19.98
2023-06-27T07:19:48.741Z,20.00
2023-06-27T07:20:48.675Z,20.00
2023-06-27T07:21:48.595Z,20.16
2023-06-27T07:22:48.534Z,20.27
2023-06-27T07:23:48.454Z,20.35
2023-06-27T07:24:48.378Z,20.38
2023-06-27T07:25:48.297Z,20.43
2023-06-27T07:26:48.237Z,20.46
2023-06-27T07:27:48.470Z,20.34
2023-06-27T07:28:48.084Z,20.28
2023-06-27T07:29:48.017Z,20.26
2023-06-27T07:30:48.403Z,20.33
2023-06-27T07:31:47.861Z,20.28
2023-06-27T07:32:47.815Z,20.33
2023-06-27T07:33:47.713Z,20.33
2023-06-27T07:34:47.639Z,20.33
2023-06-27T07:35:47.563Z,20.43
2023-06-27T07:36:47.487Z,20.54
2023-06-27T07:37:47.452Z,20.46
2023-06-27T07:38:47.338Z,20.37
2023-06-27T07:39:47.264Z,20.51
2023-06-27T07:40:47.237Z,20.54
2023-06-27T07:41:47.125Z,20.56
2023-06-27T07:42:47.041Z,20.51
2023-06-27T07:43:46.986Z,20.26
2023-06-27T07:44:47.038Z,20.37
2023-06-27T07:45:46.820Z,20.40
2023-06-27T07:46:47.436Z,20.54
2023-06-27T07:47:46.700Z,20.59
2023-06-27T07:48:46.598Z,20.72
2023-06-27T07:49:46.518Z,20.83
2023-06-27T07:50:46.485Z,20.99
2023-06-27T07:51:46.381Z,21.08
2023-06-27T07:52:46.302Z,21.31
2023-06-27T07:53:46.265Z,21.56
2023-06-27T07:54:46.158Z,21.51
2023-06-27T07:55:46.080Z,21.54
2023-06-27T07:56:46.008Z,21.41
2023-06-27T07:57:45.983Z,21.51
2023-06-27T07:58:45.866Z,21.12
2023-06-27T07:59:45.810Z,21.17
2023-06-27T08:00:45.712Z,21.14
2023-06-27T08:01:45.747Z,21.08
2023-06-27T08:02:45.668Z,20.99
2023-06-27T08:03:45.584Z,21.12
2023-06-27T08:04:45.762Z,21.16
2023-06-27T08:05:45.402Z,21.14
2023-06-27T08:07:45.282Z,21.26
2023-06-27T08:08:45.392Z,21.45
2023-06-27T08:09:45.083Z,21.46
2023-06-27T08:10:45.009Z,21.33
2023-06-27T08:11:44.944Z,21.08
2023-06-27T08:12:44.829Z,20.93
2023-06-27T08:13:44.804Z,21.16
2023-06-27T08:14:44.718Z,21.33
2023-06-27T08:15:44.876Z,21.53
2023-06-27T08:17:44.586Z,21.57
2023-06-27T08:18:44.474Z,21.48
2023-06-27T08:20:44.487Z,21.64
2023-06-27T08:21:44.201Z,21.78
2023-06-27T08:23:44.051Z,22.02
2023-06-27T08:24:43.984Z,22.08
2023-06-27T08:25:43.958Z,22.24
2023-06-27T08:26:43.832Z,22.30
2023-06-27T08:27:43.761Z,22.38
2023-06-27T08:29:43.579Z,22.17
2023-06-27T08:30:43.775Z,22.16
2023-06-27T08:31:43.625Z,22.13
2023-06-27T08:32:43.415Z,22.10
2023-06-27T08:33:43.371Z,22.05
2023-06-27T08:34:43.449Z,22.22
2023-06-27T08:35:43.185Z,21.94
2023-06-27T08:36:43.830Z,21.86
2023-06-27T08:37:43.029Z,21.98
2023-06-27T08:38:42.959Z,21.86
2023-06-27T08:39:42.881Z,21.89
2023-06-27T08:40:42.981Z,21.89
2023-06-27T08:41:42.734Z,21.98
2023-06-27T08:43:42.589Z,22.08
2023-06-27T08:44:42.720Z,22.05
2023-06-27T08:46:42.373Z,22.38
2023-06-27T08:47:42.352Z,22.26
2023-06-27T08:48:42.635Z,22.08
2023-06-27T08:49:43.358Z,22.00
2023-06-27T08:50:42.590Z,21.91
2023-06-27T08:51:42.015Z,22.07
2023-06-27T09:00:41.570Z,22.50
2023-06-27T09:01:41.277Z,22.60
2023-06-27T09:02:41.240Z,22.35
2023-06-27T09:03:41.445Z,22.38
2023-06-27T09:04:41.038Z,22.31
2023-06-27T09:05:40.960Z,22.49
2023-06-27T09:06:40.886Z,22.49
2023-06-27T09:07:40.820Z,22.44
2023-06-27T09:08:40.756Z,22.50
2023-06-27T09:09:40.769Z,22.63
2023-06-27T09:10:40.774Z,22.68
2023-06-27T09:11:40.524Z,22.81
2023-06-27T09:12:40.454Z,22.93
2023-06-27T09:13:40.582Z,22.71
2023-06-27T09:14:40.346Z,22.83
2023-06-27T09:15:40.877Z,22.93
2023-06-27T09:16:40.242Z,23.14
2023-06-27T09:17:40.201Z,23.35
2023-06-27T09:18:40.334Z,23.60
2023-06-27T09:19:39.974Z,23.58
2023-06-27T09:20:40.305Z,23.52
2023-06-27T09:21:39.808Z,23.23
2023-06-27T09:22:42.144Z,22.93
2023-06-27T09:23:40.002Z,22.83
2023-06-27T09:24:39.782Z,22.86
2023-06-27T09:25:40.074Z,22.89
2023-06-27T09:26:39.701Z,22.79
2023-06-27T09:27:39.363Z,22.92
2023-06-27T09:28:39.329Z,22.72
2023-06-27T09:29:40.870Z,22.52
2023-06-27T09:30:39.368Z,22.32
2023-06-27T09:31:39.288Z,22.37
2023-06-27T09:32:39.124Z,22.49
2023-06-27T09:33:43.108Z,22.75
2023-06-27T09:34:38.902Z,22.89
2023-06-27T09:39:38.878Z,22.83
2023-06-27T09:40:38.492Z,23.09
2023-06-27T09:41:38.595Z,23.24
2023-06-27T09:42:38.277Z,23.37
2023-06-27T09:43:38.747Z,23.38
2023-06-27T09:44:38.622Z,23.38
2023-06-27T09:46:37.987Z,23.50
2023-06-27T09:47:38.029Z,23.60
2023-06-27T09:48:37.877Z,23.71
2023-06-27T09:49:37.970Z,23.72
2023-06-27T09:50:37.740Z,23.70
2023-06-27T09:51:37.661Z,23.56
2023-06-27T09:52:37.755Z,23.61
2023-06-27T09:53:37.525Z,23.68
2023-06-27T09:54:37.457Z,23.74
2023-06-27T09:55:37.338Z,23.43
2023-06-27T09:56:37.301Z,23.46
2023-06-27T09:57:37.191Z,23.42
2023-06-27T09:58:37.362Z,23.42
2023-06-27T09:59:37.056Z,23.53
2023-06-27T10:00:37.011Z,23.53
2023-06-27T10:02:37.244Z,23.65
2023-06-27T10:03:37.039Z,23.68
2023-06-27T10:04:40.401Z,23.85
2023-06-27T10:05:39.771Z,24.00
2023-06-27T10:06:36.604Z,23.95
2023-06-27T10:07:36.604Z,23.67
2023-06-27T10:08:36.399Z,23.24
2023-06-27T10:09:36.330Z,23.24
2023-06-27T10:10:36.264Z,23.31
2023-06-27T10:11:36.826Z,23.40
2023-06-27T10:12:36.118Z,23.42
2023-06-27T10:13:36.044Z,23.20
2023-06-27T10:14:35.976Z,23.42
2023-06-27T10:38:34.363Z,24.26
2023-06-27T10:39:34.188Z,24.26
2023-06-27T10:40:36.716Z,24.26
2023-06-27T10:41:34.021Z,24.26
2023-06-27T10:51:03.861Z,24.05
2023-06-27T10:59:41.349Z,24.38
2023-06-27T11:00:38.637Z,24.41
2023-06-27T11:01:38.637Z,24.27
2023-06-27T11:02:38.640Z,24.34
2023-06-27T11:03:41.314Z,24.56
2023-06-27T11:04:38.522Z,24.73
2023-06-27T11:05:38.320Z,24.93
2023-06-27T11:11:03.755Z,24.52
2023-06-27T11:12:03.651Z,24.76
2023-06-27T11:14:04.115Z,24.80
2023-06-27T11:15:03.474Z,25.13
2023-06-27T11:16:03.527Z,25.35
2023-06-27T11:19:04.103Z,25.19
2023-06-27T11:20:03.086Z,25.20
2023-06-27T11:21:03.041Z,24.88
2023-06-27T11:22:02.938Z,24.48
2023-06-27T11:23:02.872Z,24.59
2023-06-27T11:24:02.797Z,24.60
2023-06-27T11:25:02.784Z,24.63
2023-06-27T11:26:02.663Z,24.26
2023-06-27T11:27:02.591Z,24.17
2023-06-27T11:28:02.516Z,24.17
2023-06-27T11:29:02.452Z,24.10
2023-06-27T11:30:05.058Z,24.26
2023-06-27T11:31:02.350Z,24.41
2023-06-27T11:32:02.396Z,24.41
2023-06-27T11:33:02.198Z,24.75
2023-06-27T11:34:02.104Z,24.85
2023-06-27T11:44:30.364Z,25.10
2023-06-27T11:45:30.307Z,25.16
2023-06-27T11:47:12.786Z,25.25
2023-06-27T11:48:12.651Z,25.25
2023-06-27T11:49:12.647Z,25.46
2023-06-27T11:50:12.641Z,25.60
2023-06-27T11:51:12.441Z,25.50
2023-06-27T11:52:12.368Z,25.28
2023-06-27T11:53:12.299Z,25.42
2023-06-27T11:54:12.237Z,25.77
2023-06-27T11:55:16.197Z,26.09
2023-06-27T11:58:39.546Z,26.69
2023-06-27T11:59:39.476Z,26.89
2023-06-27T12:00:39.491Z,26.72
2023-06-27T12:02:39.353Z,26.28
2023-06-27T12:03:39.230Z,26.57
2023-06-27T12:04:39.139Z,26.76
2023-06-27T12:05:39.873Z,26.67
2023-06-27T12:06:38.999Z,26.42
2023-06-27T12:07:39.124Z,26.55
2023-06-27T12:08:38.867Z,26.27
2023-06-27T12:09:38.794Z,25.87
2023-06-27T12:13:04.439Z,26.35
2023-06-27T12:14:04.331Z,26.61
2023-06-27T12:15:04.260Z,26.82
2023-06-27T12:16:04.200Z,27.39
2023-06-27T12:17:04.134Z,27.34
2023-06-27T12:18:04.169Z,27.21
2023-06-27T12:19:03.992Z,27.08
2023-06-27T12:20:03.934Z,27.35
2023-06-27T12:21:03.864Z,27.64
2023-06-27T12:24:03.756Z,27.64
2023-06-27T12:26:03.593Z,27.57
2023-06-27T12:27:11.963Z,26.98
2023-06-27T12:28:03.421Z,26.69
2023-06-27T12:29:03.349Z,26.65
2023-06-27T12:30:03.273Z,26.45
2023-06-27T12:31:03.278Z,26.16
2023-06-27T12:32:03.163Z,26.05
2023-06-27T12:33:03.207Z,26.12
2023-06-27T12:35:03.001Z,25.57
2023-06-27T12:36:02.888Z,25.32
2023-06-27T12:37:02.811Z,25.41
2023-06-27T12:38:02.753Z,25.28
2023-06-27T12:39:02.736Z,25.25
2023-06-27T12:42:35.074Z,25.65
2023-06-27T12:43:35.007Z,26.21
2023-06-27T12:44:34.941Z,26.76
2023-06-27T12:45:38.657Z,27.08
2023-06-27T12:46:34.819Z,27.21
2023-06-27T12:47:35.764Z,27.24
2023-06-27T12:48:34.674Z,27.29
2023-06-27T12:49:34.602Z,27.20
2023-06-27T12:50:34.754Z,26.72
2023-06-27T12:51:34.463Z,26.16
2023-06-27T12:52:34.399Z,25.92
2023-06-27T12:53:34.332Z,25.52
2023-06-27T12:54:34.298Z,25.84
2023-06-27T12:55:34.198Z,26.27
2023-06-27T12:56:34.229Z,26.42
2023-06-27T12:57:34.063Z,26.62
2023-06-27T12:58:34.005Z,26.35
2023-06-27T12:59:33.929Z,25.99
2023-06-27T13:00:36.567Z,26.53
2023-06-27T13:01:33.870Z,26.53
2023-06-27T13:02:35.912Z,26.57
2023-06-27T13:03:33.765Z,26.99
2023-06-27T13:04:33.597Z,27.17
2023-06-27T13:05:33.522Z,27.26
2023-06-27T13:06:33.492Z,27.31
2023-06-27T13:07:33.515Z,26.87
2023-06-27T13:08:33.784Z,26.86
2023-06-27T13:09:33.278Z,26.47
2023-06-27T13:10:33.264Z,26.83
2023-06-27T13:11:33.122Z,27.35
2023-06-27T13:12:33.050Z,27.44
2023-06-27T13:13:34.781Z,27.35
2023-06-27T13:14:32.917Z,27.05
2023-06-27T13:15:41.041Z,26.60
2023-06-27T13:16:32.847Z,26.52
2023-06-27T13:17:32.733Z,26.34
2023-06-27T13:18:32.661Z,25.97
2023-06-27T13:19:32.585Z,25.38
2023-06-27T13:20:32.773Z,25.25
2023-06-27T13:21:32.453Z,25.27
2023-06-27T13:22:32.421Z,25.25
2023-06-27T13:23:32.316Z,25.31
2023-06-27T13:24:32.254Z,25.09
2023-06-27T13:25:32.180Z,25.41
2023-06-27T13:26:32.124Z,25.99
2023-06-27T13:27:32.046Z,26.75
2023-06-27T13:28:32.002Z,27.09
2023-06-27T13:29:31.909Z,27.84
2023-06-27T13:30:31.885Z,28.66
2023-06-27T13:32:39.573Z,29.38
2023-06-27T13:33:39.239Z,29.37
2023-06-27T13:34:39.165Z,28.75
2023-06-27T13:35:39.086Z,27.83
2023-06-27T13:36:39.021Z,27.46
2023-06-27T13:37:52.136Z,28.07
2023-06-27T13:42:24.553Z,29.43
2023-06-27T13:48:06.794Z,29.00
2023-06-27T13:49:06.630Z,28.98
2023-06-27T14:01:55.078Z,29.04
2023-06-27T14:02:55.096Z,28.71
2023-06-27T14:07:01.137Z,28.68
2023-06-27T14:08:00.615Z,28.76
2023-06-27T14:09:00.512Z,28.98
2023-06-27T14:10:00.455Z,29.51
2023-06-27T14:11:00.390Z,29.96
2023-06-27T14:12:00.742Z,30.00
2023-06-27T14:13:00.258Z,30.11
2023-06-27T14:14:00.197Z,30.52
2023-06-27T14:15:00.180Z,30.77
2023-06-27T14:16:00.292Z,31.18
2023-06-27T14:17:00.044Z,31.02
2023-06-27T14:18:00.222Z,31.07
2023-06-27T14:24:56.936Z,31.08
2023-06-27T14:25:56.879Z,30.72
2023-06-27T14:26:56.826Z,29.87
2023-06-27T14:27:56.758Z,29.53
2023-06-27T14:28:56.696Z,28.84
2023-06-27T14:29:56.634Z,29.31
2023-06-27T14:30:56.620Z,30.15
2023-06-27T14:31:56.519Z,30.55
2023-06-27T14:32:56.591Z,30.81
2023-06-27T14:33:56.392Z,31.08
2023-06-27T14:34:56.328Z,31.02
2023-06-27T14:35:56.265Z,31.04
2023-06-27T14:36:56.208Z,31.15
2023-06-27T14:37:56.229Z,30.43
2023-06-27T14:38:56.156Z,30.15
2023-06-27T14:39:56.146Z,30.53
2023-06-27T14:40:55.961Z,30.90
2023-06-27T14:41:55.904Z,31.15
2023-06-27T14:42:55.841Z,31.34
2023-06-27T14:43:55.780Z,31.29
2023-06-27T14:44:55.761Z,30.94
2023-06-27T14:45:55.658Z,30.81
2023-06-27T14:46:55.600Z,30.33
2023-06-27T14:47:55.644Z,29.84
2023-06-27T14:48:55.515Z,29.04
2023-06-27T14:49:56.235Z,28.88
2023-06-27T14:50:55.351Z,28.13
2023-06-27T14:51:55.307Z,27.44
2023-06-27T14:52:55.228Z,27.34
2023-06-27T14:53:55.167Z,27.24
2023-06-27T14:54:55.101Z,27.51
2023-06-27T14:55:55.038Z,27.50
2023-06-27T15:00:54.745Z,27.89
2023-06-27T15:01:54.657Z,27.74
2023-06-27T15:02:54.656Z,27.62
2023-06-27T15:03:54.675Z,27.50
2023-06-27T15:04:54.476Z,27.50
2023-06-27T15:05:54.393Z,27.51
2023-06-27T15:06:54.338Z,27.38
2023-06-27T15:07:54.650Z,26.99
2023-06-27T15:08:54.195Z,26.76
2023-06-27T15:09:54.430Z,26.84
2023-06-27T15:10:54.135Z,26.92
2023-06-27T15:11:53.996Z,26.98
2023-06-27T15:18:47.673Z,26.98
2023-06-27T15:19:45.877Z,27.16
2023-06-27T15:20:45.827Z,27.60
2023-06-27T15:22:45.675Z,27.72
2023-06-27T15:23:45.629Z,27.34
2023-06-27T15:24:45.890Z,27.21
2023-06-27T15:25:45.513Z,27.13
2023-06-27T15:26:45.445Z,26.98
2023-06-27T15:27:45.340Z,26.80
2023-06-27T15:28:45.272Z,26.82
2023-06-27T15:29:45.237Z,26.92
2023-06-27T15:30:45.294Z,26.58
2023-06-27T15:31:45.080Z,26.67
2023-06-27T15:32:46.426Z,26.43
2023-06-27T15:33:44.931Z,26.50
2023-06-27T15:34:45.120Z,26.65
2023-06-27T15:37:09.809Z,26.08
2023-06-27T15:38:09.708Z,25.92
2023-06-27T15:39:10.088Z,25.84
2023-06-27T15:40:09.777Z,25.89
2023-06-27T15:41:12.561Z,25.83
2023-06-27T15:42:09.641Z,26.02
2023-06-27T15:43:11.239Z,26.09
2023-06-27T15:44:09.496Z,26.01
2023-06-27T15:45:09.227Z,25.97
2023-06-27T15:46:09.157Z,25.89
2023-06-27T15:48:09.146Z,26.05
2023-06-27T15:50:08.906Z,26.09
2023-06-27T15:51:12.239Z,25.84
2023-06-27T15:52:08.741Z,25.84
2023-06-27T15:53:08.695Z,25.86
2023-06-27T15:56:08.473Z,26.39
2023-06-27T15:57:08.417Z,26.43
2023-06-27T15:58:08.338Z,26.38
2023-06-27T15:59:08.256Z,26.21
2023-06-27T16:00:08.193Z,26.09
2023-06-27T16:01:08.117Z,26.05
2023-06-27T16:02:08.056Z,25.96
2023-06-27T16:03:08.119Z,25.93
2023-06-27T16:04:08.103Z,25.89
2023-06-27T16:05:08.533Z,25.74
2023-06-27T16:06:07.768Z,25.56
2023-06-27T16:07:07.814Z,25.57
2023-06-27T16:08:07.636Z,25.55
2023-06-27T16:09:07.751Z,25.53
2023-06-27T16:10:07.758Z,25.67
2023-06-27T16:11:09.350Z,25.49
2023-06-27T16:16:07.081Z,25.68
2023-06-27T16:17:07.065Z,25.60
2023-06-27T16:21:06.721Z,25.40
2023-06-27T16:22:06.662Z,25.38
2023-06-27T16:25:06.464Z,25.17
2023-06-27T16:26:48.968Z,25.16
2023-06-27T16:27:48.896Z,25.30
2023-06-27T16:28:48.819Z,25.16
2023-06-27T16:29:48.796Z,25.19
2023-06-27T16:30:48.932Z,25.19
2023-06-27T16:31:49.113Z,25.10
2023-06-27T16:32:52.444Z,25.04
2023-06-27T16:34:35.986Z,25.16
2023-06-27T16:36:48.398Z,25.08
2023-06-27T16:37:48.335Z,25.05
2023-06-27T16:38:48.249Z,25.04
2023-06-27T16:39:48.227Z,25.04
2023-06-27T16:40:48.171Z,24.91
2023-06-27T16:42:48.003Z,24.90
2023-06-27T16:43:47.899Z,24.86
2023-06-27T16:44:47.876Z,24.85
2023-06-27T16:46:47.682Z,24.82
2023-06-27T16:47:47.627Z,24.83
2023-06-27T16:48:49.805Z,24.93
2023-06-27T16:49:47.519Z,25.00
2023-06-27T16:50:47.401Z,25.02
2023-06-27T16:51:47.331Z,24.90
2023-06-27T16:52:47.263Z,24.98
2023-06-27T16:53:47.222Z,24.97
2023-06-27T16:54:47.121Z,25.15
2023-06-27T16:55:50.011Z,25.17
2023-06-27T16:56:46.997Z,25.19
2023-06-27T16:57:46.909Z,25.27
2023-06-27T16:58:49.457Z,25.12
2023-06-27T16:59:46.764Z,25.15
2023-06-27T17:00:46.690Z,24.90
2023-06-27T17:01:50.704Z,24.80